sensor_id;sensor_type;location;lat;lon;timestamp;temperature;humidity
53268;DHT22;39156;51.176;6.738;2022-11-18T00:02:12;9.30;75.80
53268;DHT22;39156;51.176;6.738;2022-11-18T00:04:38;9.30;75.80
53268;DHT22;39156;51.176;6.738;2022-11-18T00:07:03;9.20;75.80
53268;DHT22;39156;51.176;6.738;2022-11-18T00:09:29;9.30;75.80
53268;DHT22;39156;51.176;6.738;2022-11-18T00:11:54;9.30;75.90
53268;DHT22;39156;51.176;6.738;2022-11-18T00:14:39;9.30;75.90
53268;DHT22;39156;51.176;6.738;2022-11-18T00:17:05;9.20;75.80
53268;DHT22;39156;51.176;6.738;2022-11-18T00:19:35;9.30;75.90
53268;DHT22;39156;51.176;6.738;2022-11-18T00:22:07;9.30;75.90
53268;DHT22;39156;51.176;6.738;2022-11-18T00:24:34;9.30;75.90
53268;DHT22;39156;51.176;6.738;2022-11-18T00:27:00;9.40;75.90
53268;DHT22;39156;51.176;6.738;2022-11-18T00:29:26;9.30;75.80
53268;DHT22;39156;51.176;6.738;2022-11-18T00:31:55;9.30;75.80
53268;DHT22;39156;51.176;6.738;2022-11-18T00:34:24;9.30;75.90
53268;DHT22;39156;51.176;6.738;2022-11-18T00:36:49;9.40;75.90
53268;DHT22;39156;51.176;6.738;2022-11-18T00:39:17;9.30;75.80
53268;DHT22;39156;51.176;6.738;2022-11-18T00:41:44;9.40;75.80
53268;DHT22;39156;51.176;6.738;2022-11-18T00:44:29;9.30;75.70
53268;DHT22;39156;51.176;6.738;2022-11-18T00:46:55;9.30;75.70
53268;DHT22;39156;51.176;6.738;2022-11-18T00:49:21;9.30;75.60
53268;DHT22;39156;51.176;6.738;2022-11-18T00:51:47;9.30;75.60
53268;DHT22;39156;51.176;6.738;2022-11-18T00:54:12;9.30;75.60
53268;DHT22;39156;51.176;6.738;2022-11-18T00:56:38;9.40;75.60
53268;DHT22;39156;51.176;6.738;2022-11-18T00:59:04;9.30;75.60
53268;DHT22;39156;51.176;6.738;2022-11-18T01:01:29;9.20;75.50
53268;DHT22;39156;51.176;6.738;2022-11-18T01:03:55;9.30;76.30
53268;DHT22;39156;51.176;6.738;2022-11-18T01:06:21;9.30;75.70
53268;DHT22;39156;51.176;6.738;2022-11-18T01:08:47;9.30;75.80
53268;DHT22;39156;51.176;6.738;2022-11-18T01:11:13;9.30;75.90
53268;DHT22;39156;51.176;6.738;2022-11-18T01:13:57;9.30;76.00
53268;DHT22;39156;51.176;6.738;2022-11-18T01:16:25;9.20;75.80
53268;DHT22;39156;51.176;6.738;2022-11-18T01:18:52;9.30;75.80
53268;DHT22;39156;51.176;6.738;2022-11-18T01:21:18;9.30;75.80
53268;DHT22;39156;51.176;6.738;2022-11-18T01:23:44;9.30;75.70
53268;DHT22;39156;51.176;6.738;2022-11-18T01:26:11;9.20;75.70
53268;DHT22;39156;51.176;6.738;2022-11-18T01:28:38;9.20;75.70
53268;DHT22;39156;51.176;6.738;2022-11-18T01:31:12;9.20;75.70
53268;DHT22;39156;51.176;6.738;2022-11-18T01:33:39;9.20;75.80
53268;DHT22;39156;51.176;6.738;2022-11-18T01:36:15;9.20;75.70
53268;DHT22;39156;51.176;6.738;2022-11-18T01:38:52;9.20;75.90
53268;DHT22;39156;51.176;6.738;2022-11-18T01:41:20;9.20;75.80
53268;DHT22;39156;51.176;6.738;2022-11-18T01:46:24;9.20;76.20
53268;DHT22;39156;51.176;6.738;2022-11-18T01:49:05;9.10;75.90
53268;DHT22;39156;51.176;6.738;2022-11-18T01:51:37;9.10;76.20
53268;DHT22;39156;51.176;6.738;2022-11-18T01:54:12;9.10;76.00
53268;DHT22;39156;51.176;6.738;2022-11-18T01:56:44;9.10;76.00
53268;DHT22;39156;51.176;6.738;2022-11-18T01:59:22;9.00;75.90
53268;DHT22;39156;51.176;6.738;2022-11-18T02:01:49;9.10;76.10
53268;DHT22;39156;51.176;6.738;2022-11-18T02:04:16;9.00;76.10
53268;DHT22;39156;51.176;6.738;2022-11-18T02:06:44;9.00;76.10
53268;DHT22;39156;51.176;6.738;2022-11-18T02:09:12;9.00;76.20
53268;DHT22;39156;51.176;6.738;2022-11-18T02:11:39;8.80;76.20
53268;DHT22;39156;51.176;6.738;2022-11-18T02:14:26;9.00;76.30
53268;DHT22;39156;51.176;6.738;2022-11-18T02:22:26;9.00;76.70
53268;DHT22;39156;51.176;6.738;2022-11-18T02:33:31;9.00;76.40
53268;DHT22;39156;51.176;6.738;2022-11-18T02:38:38;9.00;76.30
53268;DHT22;39156;51.176;6.738;2022-11-18T02:41:09;9.00;76.30
53268;DHT22;39156;51.176;6.738;2022-11-18T02:43:52;8.90;76.20
53268;DHT22;39156;51.176;6.738;2022-11-18T02:46:24;9.00;76.50
53268;DHT22;39156;51.176;6.738;2022-11-18T02:48:54;9.00;76.40
53268;DHT22;39156;51.176;6.738;2022-11-18T02:51:25;9.00;76.40
53268;DHT22;39156;51.176;6.738;2022-11-18T02:53:55;9.00;76.50
53268;DHT22;39156;51.176;6.738;2022-11-18T02:56:23;8.90;76.50
53268;DHT22;39156;51.176;6.738;2022-11-18T02:58:50;8.90;76.50
53268;DHT22;39156;51.176;6.738;2022-11-18T03:01:22;9.00;76.60
53268;DHT22;39156;51.176;6.738;2022-11-18T03:03:50;9.00;76.80
53268;DHT22;39156;51.176;6.738;2022-11-18T03:06:36;9.00;76.70
53268;DHT22;39156;51.176;6.738;2022-11-18T03:09:23;9.00;77.20
53268;DHT22;39156;51.176;6.738;2022-11-18T03:17:43;9.00;76.90
53268;DHT22;39156;51.176;6.738;2022-11-18T03:20:25;9.00;76.80
53268;DHT22;39156;51.176;6.738;2022-11-18T03:23:05;9.00;76.90
53268;DHT22;39156;51.176;6.738;2022-11-18T03:25:44;9.00;77.10
53268;DHT22;39156;51.176;6.738;2022-11-18T03:31:15;9.00;76.90
53268;DHT22;39156;51.176;6.738;2022-11-18T03:33:49;9.00;77.00
53268;DHT22;39156;51.176;6.738;2022-11-18T03:36:20;9.10;76.80
53268;DHT22;39156;51.176;6.738;2022-11-18T03:38:50;9.10;76.90
53268;DHT22;39156;51.176;6.738;2022-11-18T03:41:19;9.00;76.80
53268;DHT22;39156;51.176;6.738;2022-11-18T03:43:50;9.10;76.90
53268;DHT22;39156;51.176;6.738;2022-11-18T03:46:22;9.00;76.90
53268;DHT22;39156;51.176;6.738;2022-11-18T03:48:54;9.00;76.90
53268;DHT22;39156;51.176;6.738;2022-11-18T03:51:34;9.10;77.00
53268;DHT22;39156;51.176;6.738;2022-11-18T03:54:23;9.10;77.10
53268;DHT22;39156;51.176;6.738;2022-11-18T03:57:00;9.10;77.30
53268;DHT22;39156;51.176;6.738;2022-11-18T03:59:37;9.00;77.00
53268;DHT22;39156;51.176;6.738;2022-11-18T04:02:29;9.20;77.10
53268;DHT22;39156;51.176;6.738;2022-11-18T04:04:56;9.10;76.90
53268;DHT22;39156;51.176;6.738;2022-11-18T04:07:29;9.10;76.90
53268;DHT22;39156;51.176;6.738;2022-11-18T04:10:15;9.10;76.90
53268;DHT22;39156;51.176;6.738;2022-11-18T04:12:48;9.10;77.00
53268;DHT22;39156;51.176;6.738;2022-11-18T04:15:24;9.10;76.90
53268;DHT22;39156;51.176;6.738;2022-11-18T04:17:50;9.10;76.80
53268;DHT22;39156;51.176;6.738;2022-11-18T04:20:18;9.10;76.80
53268;DHT22;39156;51.176;6.738;2022-11-18T04:22:45;9.10;76.70
53268;DHT22;39156;51.176;6.738;2022-11-18T04:25:11;9.10;76.70
53268;DHT22;39156;51.176;6.738;2022-11-18T04:27:37;9.20;76.70
53268;DHT22;39156;51.176;6.738;2022-11-18T04:30:04;9.20;76.70
53268;DHT22;39156;51.176;6.738;2022-11-18T04:32:31;9.20;76.80
53268;DHT22;39156;51.176;6.738;2022-11-18T04:34:57;9.20;76.80
53268;DHT22;39156;51.176;6.738;2022-11-18T04:37:23;9.20;76.70
53268;DHT22;39156;51.176;6.738;2022-11-18T04:39:48;9.20;76.60
53268;DHT22;39156;51.176;6.738;2022-11-18T04:42:14;9.20;76.60
53268;DHT22;39156;51.176;6.738;2022-11-18T04:44:40;9.20;76.60
53268;DHT22;39156;51.176;6.738;2022-11-18T04:47:05;9.30;76.70
53268;DHT22;39156;51.176;6.738;2022-11-18T04:49:32;9.20;76.60
53268;DHT22;39156;51.176;6.738;2022-11-18T04:51:59;9.20;76.60
53268;DHT22;39156;51.176;6.738;2022-11-18T04:54:26;9.30;76.60
53268;DHT22;39156;51.176;6.738;2022-11-18T04:56:53;9.30;76.70
53268;DHT22;39156;51.176;6.738;2022-11-18T04:59:20;9.20;76.50
53268;DHT22;39156;51.176;6.738;2022-11-18T05:01:48;9.20;76.50
53268;DHT22;39156;51.176;6.738;2022-11-18T05:04:16;9.20;76.50
53268;DHT22;39156;51.176;6.738;2022-11-18T05:06:44;9.20;76.50
53268;DHT22;39156;51.176;6.738;2022-11-18T05:09:10;9.10;76.50
53268;DHT22;39156;51.176;6.738;2022-11-18T05:11:35;9.10;76.60
53268;DHT22;39156;51.176;6.738;2022-11-18T05:14:19;9.10;76.70
53268;DHT22;39156;51.176;6.738;2022-11-18T05:16:45;9.20;76.80
53268;DHT22;39156;51.176;6.738;2022-11-18T05:19:11;9.00;76.80
53268;DHT22;39156;51.176;6.738;2022-11-18T05:21:37;9.10;76.90
53268;DHT22;39156;51.176;6.738;2022-11-18T05:24:03;9.10;77.00
53268;DHT22;39156;51.176;6.738;2022-11-18T05:26:29;9.10;77.10
53268;DHT22;39156;51.176;6.738;2022-11-18T05:28:55;9.00;77.10
53268;DHT22;39156;51.176;6.738;2022-11-18T05:31:21;9.10;77.20
53268;DHT22;39156;51.176;6.738;2022-11-18T05:33:47;9.10;77.20
53268;DHT22;39156;51.176;6.738;2022-11-18T05:36:15;9.00;77.20
53268;DHT22;39156;51.176;6.738;2022-11-18T05:38:42;9.00;77.40
53268;DHT22;39156;51.176;6.738;2022-11-18T05:41:07;9.00;77.40
53268;DHT22;39156;51.176;6.738;2022-11-18T05:43:34;9.00;77.50
53268;DHT22;39156;51.176;6.738;2022-11-18T05:46:01;9.00;77.50
53268;DHT22;39156;51.176;6.738;2022-11-18T05:48:27;8.90;77.50
53268;DHT22;39156;51.176;6.738;2022-11-18T05:50:54;8.90;77.60
53268;DHT22;39156;51.176;6.738;2022-11-18T05:53:22;8.90;77.60
53268;DHT22;39156;51.176;6.738;2022-11-18T05:58:36;8.90;77.90
53268;DHT22;39156;51.176;6.738;2022-11-18T06:01:04;8.90;77.80
53268;DHT22;39156;51.176;6.738;2022-11-18T06:03:36;8.90;77.90
53268;DHT22;39156;51.176;6.738;2022-11-18T06:06:04;8.80;77.80
53268;DHT22;39156;51.176;6.738;2022-11-18T06:08:38;8.90;77.80
53268;DHT22;39156;51.176;6.738;2022-11-18T06:11:10;8.90;77.90
53268;DHT22;39156;51.176;6.738;2022-11-18T06:13:45;8.90;77.90
53268;DHT22;39156;51.176;6.738;2022-11-18T06:16:16;8.90;77.90
53268;DHT22;39156;51.176;6.738;2022-11-18T06:18:45;8.90;78.00
53268;DHT22;39156;51.176;6.738;2022-11-18T06:21:10;8.90;78.10
53268;DHT22;39156;51.176;6.738;2022-11-18T06:23:38;8.90;78.00
53268;DHT22;39156;51.176;6.738;2022-11-18T06:26:04;8.90;77.90
53268;DHT22;39156;51.176;6.738;2022-11-18T06:28:31;8.90;77.90
53268;DHT22;39156;51.176;6.738;2022-11-18T06:30:58;9.00;77.80
53268;DHT22;39156;51.176;6.738;2022-11-18T06:33:23;8.90;77.70
53268;DHT22;39156;51.176;6.738;2022-11-18T06:35:49;8.90;77.70
53268;DHT22;39156;51.176;6.738;2022-11-18T06:38:15;9.00;77.60
53268;DHT22;39156;51.176;6.738;2022-11-18T06:40:40;9.00;77.60
53268;DHT22;39156;51.176;6.738;2022-11-18T06:43:10;8.90;77.60
53268;DHT22;39156;51.176;6.738;2022-11-18T06:46:02;8.90;77.50
53268;DHT22;39156;51.176;6.738;2022-11-18T06:48:48;9.00;77.40
53268;DHT22;39156;51.176;6.738;2022-11-18T06:51:14;9.00;77.40
53268;DHT22;39156;51.176;6.738;2022-11-18T06:53:39;9.00;77.40
53268;DHT22;39156;51.176;6.738;2022-11-18T06:56:11;8.90;77.40
53268;DHT22;39156;51.176;6.738;2022-11-18T06:58:38;9.00;77.50
53268;DHT22;39156;51.176;6.738;2022-11-18T07:01:18;9.00;77.50
53268;DHT22;39156;51.176;6.738;2022-11-18T07:03:48;9.00;77.70
53268;DHT22;39156;51.176;6.738;2022-11-18T07:06:19;8.90;77.40
53268;DHT22;39156;51.176;6.738;2022-11-18T07:08:46;9.00;77.60
53268;DHT22;39156;51.176;6.738;2022-11-18T07:11:14;9.00;77.50
53268;DHT22;39156;51.176;6.738;2022-11-18T07:13:42;8.90;77.50
53268;DHT22;39156;51.176;6.738;2022-11-18T07:16:20;9.00;77.50
53268;DHT22;39156;51.176;6.738;2022-11-18T07:18:47;9.00;77.70
53268;DHT22;39156;51.176;6.738;2022-11-18T07:21:17;9.00;77.50
53268;DHT22;39156;51.176;6.738;2022-11-18T07:23:53;9.00;77.40
53268;DHT22;39156;51.176;6.738;2022-11-18T07:26:19;9.10;77.40
53268;DHT22;39156;51.176;6.738;2022-11-18T07:28:45;9.10;77.50
53268;DHT22;39156;51.176;6.738;2022-11-18T07:31:17;9.10;77.40
53268;DHT22;39156;51.176;6.738;2022-11-18T07:33:44;9.10;77.40
53268;DHT22;39156;51.176;6.738;2022-11-18T07:38:39;9.10;77.20
53268;DHT22;39156;51.176;6.738;2022-11-18T07:41:12;9.10;77.10
53268;DHT22;39156;51.176;6.738;2022-11-18T07:43:42;9.10;77.10
53268;DHT22;39156;51.176;6.738;2022-11-18T07:48:39;9.10;77.10
53268;DHT22;39156;51.176;6.738;2022-11-18T07:51:07;9.10;77.00
53268;DHT22;39156;51.176;6.738;2022-11-18T07:53:34;9.20;77.10
53268;DHT22;39156;51.176;6.738;2022-11-18T07:56:01;9.20;77.20
53268;DHT22;39156;51.176;6.738;2022-11-18T07:58:27;9.20;77.10
53268;DHT22;39156;51.176;6.738;2022-11-18T08:00:53;9.20;77.10
53268;DHT22;39156;51.176;6.738;2022-11-18T08:03:19;9.30;77.10
53268;DHT22;39156;51.176;6.738;2022-11-18T08:05:44;9.20;77.10
53268;DHT22;39156;51.176;6.738;2022-11-18T08:08:10;9.30;77.10
53268;DHT22;39156;51.176;6.738;2022-11-18T08:10:36;9.30;77.00
53268;DHT22;39156;51.176;6.738;2022-11-18T08:13:02;9.30;77.00
53268;DHT22;39156;51.176;6.738;2022-11-18T08:15:28;9.40;77.10
53268;DHT22;39156;51.176;6.738;2022-11-18T08:17:53;9.30;76.90
53268;DHT22;39156;51.176;6.738;2022-11-18T08:20:19;9.40;76.90
53268;DHT22;39156;51.176;6.738;2022-11-18T08:22:45;9.50;77.70
53268;DHT22;39156;51.176;6.738;2022-11-18T08:25:10;9.50;77.10
53268;DHT22;39156;51.176;6.738;2022-11-18T08:27:36;9.50;76.90
53268;DHT22;39156;51.176;6.738;2022-11-18T08:30:02;9.60;77.20
53268;DHT22;39156;51.176;6.738;2022-11-18T08:32:29;9.60;76.60
53268;DHT22;39156;51.176;6.738;2022-11-18T08:34:54;9.60;76.70
53268;DHT22;39156;51.176;6.738;2022-11-18T08:37:20;9.80;77.30
53268;DHT22;39156;51.176;6.738;2022-11-18T08:39:46;10.00;77.90
53268;DHT22;39156;51.176;6.738;2022-11-18T08:42:11;10.20;78.10
53268;DHT22;39156;51.176;6.738;2022-11-18T08:44:37;10.40;77.90
53268;DHT22;39156;51.176;6.738;2022-11-18T08:47:03;10.60;77.90
53268;DHT22;39156;51.176;6.738;2022-11-18T08:49:28;10.90;78.10
53268;DHT22;39156;51.176;6.738;2022-11-18T08:51:54;11.30;78.30
53268;DHT22;39156;51.176;6.738;2022-11-18T08:54:20;11.70;78.00
53268;DHT22;39156;51.176;6.738;2022-11-18T08:56:46;12.10;77.50
53268;DHT22;39156;51.176;6.738;2022-11-18T08:59:11;12.50;76.30
53268;DHT22;39156;51.176;6.738;2022-11-18T09:01:38;12.80;75.50
53268;DHT22;39156;51.176;6.738;2022-11-18T09:04:06;13.20;74.80
53268;DHT22;39156;51.176;6.738;2022-11-18T09:06:32;13.50;73.80
53268;DHT22;39156;51.176;6.738;2022-11-18T09:08:59;13.80;72.30
53268;DHT22;39156;51.176;6.738;2022-11-18T09:11:26;14.10;71.50
53268;DHT22;39156;51.176;6.738;2022-11-18T09:13:54;14.40;70.70
53268;DHT22;39156;51.176;6.738;2022-11-18T09:16:24;14.70;70.00
53268;DHT22;39156;51.176;6.738;2022-11-18T09:18:50;14.90;69.30
53268;DHT22;39156;51.176;6.738;2022-11-18T09:21:17;15.20;68.60
53268;DHT22;39156;51.176;6.738;2022-11-18T09:23:43;15.50;67.90
53268;DHT22;39156;51.176;6.738;2022-11-18T09:26:15;15.70;67.20
53268;DHT22;39156;51.176;6.738;2022-11-18T09:28:42;15.90;66.30
53268;DHT22;39156;51.176;6.738;2022-11-18T09:31:13;16.20;65.50
53268;DHT22;39156;51.176;6.738;2022-11-18T09:33:40;16.30;63.30
53268;DHT22;39156;51.176;6.738;2022-11-18T09:36:18;16.40;64.60
53268;DHT22;39156;51.176;6.738;2022-11-18T09:38:48;16.50;61.80
53268;DHT22;39156;51.176;6.738;2022-11-18T09:44:34;16.70;61.10
53268;DHT22;39156;51.176;6.738;2022-11-18T09:47:27;16.90;61.20
53268;DHT22;39156;51.176;6.738;2022-11-18T09:50:21;17.00;60.70
53268;DHT22;39156;51.176;6.738;2022-11-18T09:55:49;17.00;58.90
53268;DHT22;39156;51.176;6.738;2022-11-18T10:00:56;16.80;58.30
53268;DHT22;39156;51.176;6.738;2022-11-18T10:03:30;16.80;59.40
53268;DHT22;39156;51.176;6.738;2022-11-18T10:11:17;16.80;59.60
53268;DHT22;39156;51.176;6.738;2022-11-18T10:20:14;16.80;57.30
53268;DHT22;39156;51.176;6.738;2022-11-18T10:23:19;16.60;56.60
53268;DHT22;39156;51.176;6.738;2022-11-18T10:25:56;16.40;57.20
53268;DHT22;39156;51.176;6.738;2022-11-18T10:28:25;16.10;57.30
53268;DHT22;39156;51.176;6.738;2022-11-18T10:31:10;15.90;57.90
53268;DHT22;39156;51.176;6.738;2022-11-18T10:33:37;15.70;57.60
53268;DHT22;39156;51.176;6.738;2022-11-18T10:39:08;15.40;58.60
53268;DHT22;39156;51.176;6.738;2022-11-18T10:41:47;15.30;58.90
53268;DHT22;39156;51.176;6.738;2022-11-18T10:44:38;15.30;59.10
53268;DHT22;39156;51.176;6.738;2022-11-18T10:47:25;15.30;59.20
53268;DHT22;39156;51.176;6.738;2022-11-18T10:49:55;15.40;59.10
53268;DHT22;39156;51.176;6.738;2022-11-18T10:52:26;15.40;59.40
53268;DHT22;39156;51.176;6.738;2022-11-18T10:57:36;15.40;58.40
53268;DHT22;39156;51.176;6.738;2022-11-18T11:00:46;15.40;58.40
53268;DHT22;39156;51.176;6.738;2022-11-18T11:03:37;15.40;58.00
53268;DHT22;39156;51.176;6.738;2022-11-18T11:06:35;15.20;58.30
53268;DHT22;39156;51.176;6.738;2022-11-18T11:11:58;15.00;58.20
53268;DHT22;39156;51.176;6.738;2022-11-18T11:14:36;14.90;58.40
53268;DHT22;39156;51.176;6.738;2022-11-18T11:17:35;14.80;58.10
53268;DHT22;39156;51.176;6.738;2022-11-18T11:22:43;14.50;58.50
53268;DHT22;39156;51.176;6.738;2022-11-18T11:25:42;14.40;58.90
53268;DHT22;39156;51.176;6.738;2022-11-18T11:28:38;14.20;59.40
53268;DHT22;39156;51.176;6.738;2022-11-18T11:31:48;14.10;59.80
53268;DHT22;39156;51.176;6.738;2022-11-18T11:34:32;14.00;60.30
53268;DHT22;39156;51.176;6.738;2022-11-18T11:40:26;14.00;60.40
53268;DHT22;39156;51.176;6.738;2022-11-18T11:43:23;13.90;60.90
53268;DHT22;39156;51.176;6.738;2022-11-18T11:49:16;13.80;60.70
53268;DHT22;39156;51.176;6.738;2022-11-18T11:51:53;13.90;60.50
53268;DHT22;39156;51.176;6.738;2022-11-18T12:00:16;13.80;60.40
53268;DHT22;39156;51.176;6.738;2022-11-18T12:03:09;13.80;60.40
53268;DHT22;39156;51.176;6.738;2022-11-18T12:05:59;13.80;60.40
53268;DHT22;39156;51.176;6.738;2022-11-18T12:08:29;13.80;61.00
53268;DHT22;39156;51.176;6.738;2022-11-18T12:11:02;13.80;60.30
53268;DHT22;39156;51.176;6.738;2022-11-18T12:13:36;13.70;60.10
53268;DHT22;39156;51.176;6.738;2022-11-18T12:19:14;13.70;60.40
53268;DHT22;39156;51.176;6.738;2022-11-18T12:26:49;13.40;60.30
53268;DHT22;39156;51.176;6.738;2022-11-18T12:29:20;13.30;60.40
53268;DHT22;39156;51.176;6.738;2022-11-18T12:31:55;13.20;61.10
53268;DHT22;39156;51.176;6.738;2022-11-18T12:39:57;12.90;60.90
53268;DHT22;39156;51.176;6.738;2022-11-18T12:42:46;12.70;60.90
53268;DHT22;39156;51.176;6.738;2022-11-18T12:48:27;12.50;61.30
53268;DHT22;39156;51.176;6.738;2022-11-18T12:50:55;12.40;61.70
53268;DHT22;39156;51.176;6.738;2022-11-18T12:58:52;12.20;62.40
53268;DHT22;39156;51.176;6.738;2022-11-18T13:01:25;12.10;62.70
53268;DHT22;39156;51.176;6.738;2022-11-18T13:04:17;12.00;62.50
53268;DHT22;39156;51.176;6.738;2022-11-18T13:06:46;12.00;62.70
53268;DHT22;39156;51.176;6.738;2022-11-18T13:09:32;12.00;62.80
53268;DHT22;39156;51.176;6.738;2022-11-18T13:12:02;11.90;63.10
53268;DHT22;39156;51.176;6.738;2022-11-18T13:14:38;11.90;63.10
53268;DHT22;39156;51.176;6.738;2022-11-18T13:17:32;11.90;63.30
53268;DHT22;39156;51.176;6.738;2022-11-18T13:22:59;11.80;63.70
53268;DHT22;39156;51.176;6.738;2022-11-18T13:25:45;11.80;63.40
53268;DHT22;39156;51.176;6.738;2022-11-18T13:28:43;11.80;63.70
53268;DHT22;39156;51.176;6.738;2022-11-18T13:32:19;11.70;63.90
53268;DHT22;39156;51.176;6.738;2022-11-18T13:34:27;11.70;63.90
53268;DHT22;39156;51.176;6.738;2022-11-18T13:36:56;11.70;63.90
53268;DHT22;39156;51.176;6.738;2022-11-18T13:39:29;11.70;64.20
53268;DHT22;39156;51.176;6.738;2022-11-18T13:44:38;11.60;64.30
53268;DHT22;39156;51.176;6.738;2022-11-18T13:47:18;11.60;64.60
53268;DHT22;39156;51.176;6.738;2022-11-18T13:52:40;11.60;64.50
53268;DHT22;39156;51.176;6.738;2022-11-18T13:55:22;11.50;64.40
53268;DHT22;39156;51.176;6.738;2022-11-18T13:58:05;11.50;64.70
53268;DHT22;39156;51.176;6.738;2022-11-18T14:00:55;11.50;64.60
53268;DHT22;39156;51.176;6.738;2022-11-18T14:06:01;11.40;64.90
53268;DHT22;39156;51.176;6.738;2022-11-18T14:08:28;11.40;64.90
53268;DHT22;39156;51.176;6.738;2022-11-18T14:10:55;11.40;64.90
53268;DHT22;39156;51.176;6.738;2022-11-18T14:13:32;11.50;65.00
53268;DHT22;39156;51.176;6.738;2022-11-18T14:18:46;11.40;65.40
53268;DHT22;39156;51.176;6.738;2022-11-18T14:21:13;11.40;65.20
53268;DHT22;39156;51.176;6.738;2022-11-18T14:23:51;11.40;65.30
53268;DHT22;39156;51.176;6.738;2022-11-18T14:26:35;11.40;65.30
53268;DHT22;39156;51.176;6.738;2022-11-18T14:29:13;11.40;65.40
53268;DHT22;39156;51.176;6.738;2022-11-18T14:32:02;11.30;65.40
53268;DHT22;39156;51.176;6.738;2022-11-18T14:34:28;11.30;65.40
53268;DHT22;39156;51.176;6.738;2022-11-18T14:36:55;11.30;65.40
53268;DHT22;39156;51.176;6.738;2022-11-18T14:41:51;11.40;65.50
53268;DHT22;39156;51.176;6.738;2022-11-18T14:44:18;11.40;65.40
53268;DHT22;39156;51.176;6.738;2022-11-18T14:46:49;11.40;65.50
53268;DHT22;39156;51.176;6.738;2022-11-18T14:49:21;11.40;65.80
53268;DHT22;39156;51.176;6.738;2022-11-18T14:51:49;11.30;65.70
53268;DHT22;39156;51.176;6.738;2022-11-18T14:54:16;11.40;65.90
53268;DHT22;39156;51.176;6.738;2022-11-18T14:56:43;11.40;66.10
53268;DHT22;39156;51.176;6.738;2022-11-18T14:59:13;11.30;65.70
53268;DHT22;39156;51.176;6.738;2022-11-18T15:01:41;11.30;65.70
53268;DHT22;39156;51.176;6.738;2022-11-18T15:04:08;11.20;65.70
53268;DHT22;39156;51.176;6.738;2022-11-18T15:06:33;11.20;65.80
53268;DHT22;39156;51.176;6.738;2022-11-18T15:08:59;11.20;65.80
53268;DHT22;39156;51.176;6.738;2022-11-18T15:11:25;11.20;66.00
53268;DHT22;39156;51.176;6.738;2022-11-18T15:13:51;11.20;66.00
53268;DHT22;39156;51.176;6.738;2022-11-18T15:16:25;11.10;66.00
53268;DHT22;39156;51.176;6.738;2022-11-18T15:18:54;11.00;66.00
53268;DHT22;39156;51.176;6.738;2022-11-18T15:21:21;11.00;66.80
53268;DHT22;39156;51.176;6.738;2022-11-18T15:23:48;10.90;66.20
53268;DHT22;39156;51.176;6.738;2022-11-18T15:26:24;10.90;66.50
53268;DHT22;39156;51.176;6.738;2022-11-18T15:28:56;10.90;66.90
53268;DHT22;39156;51.176;6.738;2022-11-18T15:31:23;10.80;66.70
53268;DHT22;39156;51.176;6.738;2022-11-18T15:33:49;10.80;66.80
53268;DHT22;39156;51.176;6.738;2022-11-18T15:36:19;10.70;67.00
53268;DHT22;39156;51.176;6.738;2022-11-18T15:38:46;10.60;67.20
53268;DHT22;39156;51.176;6.738;2022-11-18T15:41:31;10.60;67.10
53268;DHT22;39156;51.176;6.738;2022-11-18T15:43:58;10.50;67.70
53268;DHT22;39156;51.176;6.738;2022-11-18T15:46:26;10.50;67.30
53268;DHT22;39156;51.176;6.738;2022-11-18T15:48:55;10.40;67.30
53268;DHT22;39156;51.176;6.738;2022-11-18T15:51:22;10.40;67.50
53268;DHT22;39156;51.176;6.738;2022-11-18T15:53:48;10.30;67.60
53268;DHT22;39156;51.176;6.738;2022-11-18T15:56:26;10.30;67.90
53268;DHT22;39156;51.176;6.738;2022-11-18T16:01:32;10.10;67.70
53268;DHT22;39156;51.176;6.738;2022-11-18T16:03:59;10.10;67.80
53268;DHT22;39156;51.176;6.738;2022-11-18T16:06:26;10.10;67.80
53268;DHT22;39156;51.176;6.738;2022-11-18T16:08:52;10.00;67.90
53268;DHT22;39156;51.176;6.738;2022-11-18T16:11:18;10.00;68.10
53268;DHT22;39156;51.176;6.738;2022-11-18T16:14:07;9.90;68.40
53268;DHT22;39156;51.176;6.738;2022-11-18T16:16:34;9.80;68.80
53268;DHT22;39156;51.176;6.738;2022-11-18T16:19:03;9.80;68.90
53268;DHT22;39156;51.176;6.738;2022-11-18T16:21:32;9.80;69.10
53268;DHT22;39156;51.176;6.738;2022-11-18T16:24:00;9.80;69.30
53268;DHT22;39156;51.176;6.738;2022-11-18T16:26:27;9.80;69.60
53268;DHT22;39156;51.176;6.738;2022-11-18T16:28:55;9.80;70.20
53268;DHT22;39156;51.176;6.738;2022-11-18T16:31:22;9.90;70.40
53268;DHT22;39156;51.176;6.738;2022-11-18T16:34:16;9.80;70.40
53268;DHT22;39156;51.176;6.738;2022-11-18T16:36:56;9.80;70.70
53268;DHT22;39156;51.176;6.738;2022-11-18T16:39:26;9.90;70.70
53268;DHT22;39156;51.176;6.738;2022-11-18T16:41:57;9.90;70.50
53268;DHT22;39156;51.176;6.738;2022-11-18T16:44:23;9.90;70.70
53268;DHT22;39156;51.176;6.738;2022-11-18T16:46:54;10.00;70.60
53268;DHT22;39156;51.176;6.738;2022-11-18T16:49:22;9.90;70.70
53268;DHT22;39156;51.176;6.738;2022-11-18T16:51:51;9.90;70.60
53268;DHT22;39156;51.176;6.738;2022-11-18T16:54:21;10.00;70.60
53268;DHT22;39156;51.176;6.738;2022-11-18T16:56:48;10.00;70.70
53268;DHT22;39156;51.176;6.738;2022-11-18T16:59:17;10.00;70.70
53268;DHT22;39156;51.176;6.738;2022-11-18T17:01:46;10.00;70.60
53268;DHT22;39156;51.176;6.738;2022-11-18T17:04:13;10.00;70.70
53268;DHT22;39156;51.176;6.738;2022-11-18T17:06:39;10.00;70.80
53268;DHT22;39156;51.176;6.738;2022-11-18T17:09:06;10.00;70.80
53268;DHT22;39156;51.176;6.738;2022-11-18T17:11:34;10.00;71.10
53268;DHT22;39156;51.176;6.738;2022-11-18T17:14:00;10.00;71.20
53268;DHT22;39156;51.176;6.738;2022-11-18T17:16:25;9.90;71.00
53268;DHT22;39156;51.176;6.738;2022-11-18T17:18:55;10.00;70.80
53268;DHT22;39156;51.176;6.738;2022-11-18T17:21:23;9.90;71.10
53268;DHT22;39156;51.176;6.738;2022-11-18T17:23:49;9.90;71.00
53268;DHT22;39156;51.176;6.738;2022-11-18T17:26:21;9.90;71.10
53268;DHT22;39156;51.176;6.738;2022-11-18T17:28:48;9.80;71.30
53268;DHT22;39156;51.176;6.738;2022-11-18T17:31:16;9.80;71.20
53268;DHT22;39156;51.176;6.738;2022-11-18T17:33:43;9.70;71.30
53268;DHT22;39156;51.176;6.738;2022-11-18T17:36:12;9.70;71.40
53268;DHT22;39156;51.176;6.738;2022-11-18T17:38:40;9.60;71.30
53268;DHT22;39156;51.176;6.738;2022-11-18T17:41:09;9.60;71.40
53268;DHT22;39156;51.176;6.738;2022-11-18T17:43:57;9.60;71.40
53268;DHT22;39156;51.176;6.738;2022-11-18T17:46:23;9.60;71.50
53268;DHT22;39156;51.176;6.738;2022-11-18T17:48:56;9.40;71.60
53268;DHT22;39156;51.176;6.738;2022-11-18T17:51:23;9.40;71.90
53268;DHT22;39156;51.176;6.738;2022-11-18T17:53:51;9.40;72.10
53268;DHT22;39156;51.176;6.738;2022-11-18T17:56:18;9.40;72.20
53268;DHT22;39156;51.176;6.738;2022-11-18T17:58:44;9.40;72.60
53268;DHT22;39156;51.176;6.738;2022-11-18T18:01:15;9.40;72.70
53268;DHT22;39156;51.176;6.738;2022-11-18T18:03:42;9.30;72.90
53268;DHT22;39156;51.176;6.738;2022-11-18T18:06:10;9.40;72.90
53268;DHT22;39156;51.176;6.738;2022-11-18T18:08:38;9.40;72.80